Flight Track Log - Related Links

Times and Time Zones

All times are in EDT time to prevent confusion due to time zone crossing. See the SKW6492 flight status page for this flight to view local times or setup timezone preferences in your user account.

Time Position Orientation Groundspeed Altitude Reporting Facility
EDT Latitude Longitude Course Direction KTS MPH feet Rate Location/Type
Mon 01:37:00 AM 40.1154 -104.8908 327° Northwest  Level Estimated
Mon 01:38:00 AM 40.1999 -104.9637 327° Northwest  Level Estimated
Mon 01:39:00 AM 40.2843 -105.0368 327° Northwest  Level Estimated
Mon 01:40:00 AM 40.3687 -105.1100 327° Northwest  Level Estimated
Mon 01:41:00 AM 40.4531 -105.1835 326° Northwest  Level Estimated
Mon 01:42:00 AM 40.5374 -105.2571 326° Northwest  Level Estimated
Mon 01:43:00 AM 40.6216 -105.3309 326° Northwest  Level Estimated
Mon 01:44:00 AM 40.7058 -105.4049 326° Northwest  Level Estimated
Mon 01:45:00 AM 40.7900 -105.4791 326° Northwest  Level Estimated
Mon 01:46:00 AM 40.8741 -105.5535 326° Northwest  Level Estimated
Mon 01:47:00 AM 40.9582 -105.6281 326° Northwest  Level Estimated
Mon 01:48:00 AM 41.0422 -105.7028 326° Northwest  Level Estimated
Mon 01:49:00 AM 41.1262 -105.7778 326° Northwest  Level Estimated
Mon 01:50:00 AM 41.2101 -105.8529 326° Northwest  Level Estimated
Mon 01:51:00 AM 41.2940 -105.9282 326° Northwest  Level Estimated
Mon 01:52:00 AM 41.3778 -106.0038 326° Northwest  Level Estimated
Mon 01:53:00 AM 41.4616 -106.0795 326° Northwest  Level Estimated
Mon 01:54:00 AM 41.5453 -106.1554 326° Northwest  Level Estimated
Mon 01:55:00 AM 41.6289 -106.2315 326° Northwest  Level Estimated
Mon 01:56:00 AM 41.7126 -106.3078 326° Northwest  Level Estimated
Mon 01:57:00 AM 41.7961 -106.3843 326° Northwest  Level Estimated
Mon 01:58:00 AM 41.8797 -106.4611 326° Northwest  Level Estimated
Mon 01:59:00 AM 41.9631 -106.5380 326° Northwest  Level Estimated
Mon 02:00:00 AM 42.0466 -106.6151 326° Northwest  Level Estimated
Mon 02:01:00 AM 42.1299 -106.6924 325° Northwest  Level Estimated
Mon 02:02:00 AM 42.2132 -106.7699 325° Northwest  Level Estimated
Mon 02:03:00 AM 42.2965 -106.8476 325° Northwest  Level Estimated
Mon 02:04:00 AM 42.3797 -106.9256 325° Northwest  Level Estimated
Mon 02:05:00 AM 42.4629 -107.0037 325° Northwest  Level Estimated
Mon 02:06:00 AM 42.5460 -107.0820 325° Northwest  Level Estimated
Mon 02:07:00 AM 42.6290 -107.1606 325° Northwest  Level Estimated
Mon 02:08:00 AM 42.7120 -107.2393 325° Northwest  Level Estimated
Mon 02:09:00 AM 42.7949 -107.3183 325° Northwest  Level Estimated
Mon 02:10:00 AM 42.8778 -107.3975 325° Northwest  Level Estimated
Mon 02:11:00 AM 42.9607 -107.4769 325° Northwest  Level Estimated
Mon 02:12:00 AM 43.0434 -107.5565 325° Northwest  Level Estimated
Mon 02:13:00 AM 43.1262 -107.6364 325° Northwest  Level Estimated
Mon 02:14:00 AM 43.2088 -107.7164 325° Northwest  Level Estimated
Mon 02:15:00 AM 43.2915 -107.7967 325° Northwest  Level Estimated
Mon 02:16:00 AM 43.3740 -107.8771 325° Northwest  Level Estimated
Mon 02:17:00 AM 43.4565 -107.9578 325° Northwest  Level Estimated
Mon 02:18:00 AM 43.5389 -108.0387 325° Northwest  Level Estimated
Mon 02:19:00 AM 43.6213 -108.1199 325° Northwest  Level Estimated
Mon 02:20:00 AM 43.7037 -108.2012 324° Northwest  Level Estimated
Mon 02:21:00 AM 43.7859 -108.2828 324° Northwest  Level Estimated
Mon 02:22:00 AM 43.8681 -108.3646 324° Northwest  Level Estimated
Mon 02:23:00 AM 43.9503 -108.4467 324° Northwest  Level Estimated
Mon 02:24:00 AM 44.0324 -108.5290 324° Northwest  Level Estimated
Mon 02:25:00 AM 44.1144 -108.6115 324° Northwest  Level Estimated
Mon 02:26:00 AM 44.1964 -108.6942 324° Northwest  Level Estimated
Mon 02:27:00 AM 44.2783 -108.7771 324° Northwest  Level Estimated
Mon 02:28:00 AM 44.3601 -108.8603 324° Northwest  Level Estimated
Mon 02:29:00 AM 44.4419 -108.9437 324° Northwest  Level Estimated
Mon 02:30:00 AM 44.5202 -109.0238 324° Northwest  Level Estimated
Mon 02:31:00 AM 44.5202 -109.0238 35° Northeast  Level Estimated
Mon 02:32:00 AM 44.5202 -109.0238 35° Northeast  Level Estimated
Mon 02:33:00 AM 44.5202 -109.0238 35° Northeast  Level Estimated
Mon 02:34:00 AM 44.5202 -109.0238 35° Northeast  Level Estimated
Mon 02:35:00 AM 44.5202 -109.0238 35° Northeast  Level Estimated

Login

Don't have an account? Register now (free) for customized features, flight alerts, and more!